Mecca, Ohio
Current Conditions -  °F | °C
As of 11:51 PM on Monday 20 Oct 2014 (Local Time) from KYNG Reporting Station
Light Rain Light Rain  
Wind Chill: 50°   Ceiling: 1200
Heat Index: 50°   Visibility: 3mi
Dew Point: 48°   Wind: 8mph
Humidity: 93%   Direction: 210°SSW
Pressure: 29.84"   Gusts: NA
Location:  41.3436°N, 80.7192°W
Report Text: KYNG 210351Z 21007KT 3SM -RA BR FEW008 OVC012 10/09 A2984 RMK AO2 SLP109 P0005 T01000089
Loading
Personal Weather Stations






























Interactive Weather Map
Tropical Storm Tracking
New forecast layout! Learn more

10-Day Weather Forecast

Advertisements
Track Severe Weather on mobile